sensor_id;sensor_type;location;lat;lon;timestamp;P1;durP1;ratioP1;P2;durP2;ratioP2
84915;SDS011;75178;53.054;5.846;2024-01-06T00:02:41;20.73;;;15.20;;
84915;SDS011;75178;53.054;5.846;2024-01-06T00:05:25;18.58;;;14.90;;
84915;SDS011;75178;53.054;5.846;2024-01-06T00:08:09;17.55;;;14.88;;
84915;SDS011;75178;53.054;5.846;2024-01-06T00:10:53;16.50;;;14.07;;
84915;SDS011;75178;53.054;5.846;2024-01-06T00:13:39;17.08;;;13.63;;
84915;SDS011;75178;53.054;5.846;2024-01-06T00:16:23;18.05;;;15.32;;
84915;SDS011;75178;53.054;5.846;2024-01-06T00:19:07;19.35;;;14.57;;
84915;SDS011;75178;53.054;5.846;2024-01-06T00:21:51;17.70;;;14.23;;
84915;SDS011;75178;53.054;5.846;2024-01-06T00:24:35;20.20;;;14.77;;
84915;SDS011;75178;53.054;5.846;2024-01-06T00:27:19;17.92;;;14.73;;
84915;SDS011;75178;53.054;5.846;2024-01-06T00:30:05;24.52;;;15.55;;
84915;SDS011;75178;53.054;5.846;2024-01-06T00:32:50;20.90;;;16.10;;
84915;SDS011;75178;53.054;5.846;2024-01-06T00:35:35;17.75;;;13.65;;
84915;SDS011;75178;53.054;5.846;2024-01-06T00:38:19;16.65;;;13.48;;
84915;SDS011;75178;53.054;5.846;2024-01-06T00:41:04;18.33;;;14.20;;
84915;SDS011;75178;53.054;5.846;2024-01-06T00:43:48;17.83;;;13.30;;
84915;SDS011;75178;53.054;5.846;2024-01-06T00:46:33;17.42;;;12.30;;
84915;SDS011;75178;53.054;5.846;2024-01-06T00:49:17;17.33;;;12.35;;
84915;SDS011;75178;53.054;5.846;2024-01-06T00:52:02;19.15;;;12.75;;
84915;SDS011;75178;53.054;5.846;2024-01-06T00:54:46;17.10;;;12.75;;
84915;SDS011;75178;53.054;5.846;2024-01-06T00:57:30;14.15;;;11.63;;
84915;SDS011;75178;53.054;5.846;2024-01-06T01:00:14;15.32;;;10.98;;
84915;SDS011;75178;53.054;5.846;2024-01-06T01:03:00;15.40;;;11.05;;
84915;SDS011;75178;53.054;5.846;2024-01-06T01:05:44;12.77;;;9.75;;
84915;SDS011;75178;53.054;5.846;2024-01-06T01:08:28;13.15;;;10.32;;
84915;SDS011;75178;53.054;5.846;2024-01-06T01:11:12;13.88;;;10.30;;
84915;SDS011;75178;53.054;5.846;2024-01-06T01:13:57;13.25;;;11.05;;
84915;SDS011;75178;53.054;5.846;2024-01-06T01:16:41;13.38;;;10.57;;
84915;SDS011;75178;53.054;5.846;2024-01-06T01:19:26;14.88;;;10.20;;
84915;SDS011;75178;53.054;5.846;2024-01-06T01:22:10;16.02;;;10.45;;
84915;SDS011;75178;53.054;5.846;2024-01-06T01:24:54;16.08;;;11.10;;
84915;SDS011;75178;53.054;5.846;2024-01-06T01:27:39;16.00;;;11.05;;
84915;SDS011;75178;53.054;5.846;2024-01-06T01:30:23;14.35;;;11.15;;
84915;SDS011;75178;53.054;5.846;2024-01-06T01:33:07;16.27;;;11.43;;
84915;SDS011;75178;53.054;5.846;2024-01-06T01:35:52;16.02;;;11.93;;
84915;SDS011;75178;53.054;5.846;2024-01-06T01:38:36;18.67;;;11.30;;
84915;SDS011;75178;53.054;5.846;2024-01-06T01:41:20;16.05;;;10.00;;
84915;SDS011;75178;53.054;5.846;2024-01-06T01:44:05;18.73;;;10.88;;
84915;SDS011;75178;53.054;5.846;2024-01-06T01:46:49;18.17;;;11.07;;
84915;SDS011;75178;53.054;5.846;2024-01-06T01:49:33;14.90;;;10.18;;
84915;SDS011;75178;53.054;5.846;2024-01-06T01:52:18;13.50;;;9.48;;
84915;SDS011;75178;53.054;5.846;2024-01-06T01:55:03;14.57;;;9.27;;
84915;SDS011;75178;53.054;5.846;2024-01-06T01:57:48;13.57;;;9.25;;
84915;SDS011;75178;53.054;5.846;2024-01-06T02:00:32;17.10;;;9.90;;
84915;SDS011;75178;53.054;5.846;2024-01-06T02:03:16;11.25;;;8.68;;
84915;SDS011;75178;53.054;5.846;2024-01-06T02:06:01;12.45;;;9.48;;
84915;SDS011;75178;53.054;5.846;2024-01-06T02:08:46;13.30;;;9.50;;
84915;SDS011;75178;53.054;5.846;2024-01-06T02:11:31;16.17;;;9.45;;
84915;SDS011;75178;53.054;5.846;2024-01-06T02:14:15;15.52;;;10.70;;
84915;SDS011;75178;53.054;5.846;2024-01-06T02:16:59;14.98;;;9.52;;
84915;SDS011;75178;53.054;5.846;2024-01-06T02:19:43;15.45;;;9.75;;
84915;SDS011;75178;53.054;5.846;2024-01-06T02:22:29;11.63;;;8.38;;
84915;SDS011;75178;53.054;5.846;2024-01-06T02:25:13;13.52;;;9.55;;
84915;SDS011;75178;53.054;5.846;2024-01-06T02:27:57;15.00;;;9.38;;
84915;SDS011;75178;53.054;5.846;2024-01-06T02:30:41;13.57;;;9.48;;
84915;SDS011;75178;53.054;5.846;2024-01-06T02:33:26;14.95;;;10.25;;
84915;SDS011;75178;53.054;5.846;2024-01-06T02:36:10;17.17;;;10.45;;
84915;SDS011;75178;53.054;5.846;2024-01-06T02:38:56;15.05;;;10.43;;
84915;SDS011;75178;53.054;5.846;2024-01-06T02:41:40;16.55;;;10.52;;
84915;SDS011;75178;53.054;5.846;2024-01-06T02:44:24;14.23;;;10.00;;
84915;SDS011;75178;53.054;5.846;2024-01-06T02:47:08;15.50;;;10.50;;
84915;SDS011;75178;53.054;5.846;2024-01-06T02:49:52;16.17;;;10.00;;
84915;SDS011;75178;53.054;5.846;2024-01-06T02:52:36;18.58;;;10.88;;
84915;SDS011;75178;53.054;5.846;2024-01-06T02:55:22;13.90;;;9.63;;
84915;SDS011;75178;53.054;5.846;2024-01-06T02:58:06;15.93;;;10.57;;
84915;SDS011;75178;53.054;5.846;2024-01-06T03:00:51;15.18;;;10.43;;
84915;SDS011;75178;53.054;5.846;2024-01-06T03:03:35;21.75;;;10.45;;
84915;SDS011;75178;53.054;5.846;2024-01-06T03:06:19;15.52;;;10.05;;
84915;SDS011;75178;53.054;5.846;2024-01-06T03:09:03;16.45;;;10.82;;
84915;SDS011;75178;53.054;5.846;2024-01-06T03:11:49;20.00;;;11.70;;
84915;SDS011;75178;53.054;5.846;2024-01-06T03:14:33;18.00;;;12.15;;
84915;SDS011;75178;53.054;5.846;2024-01-06T03:17:18;19.77;;;11.75;;
84915;SDS011;75178;53.054;5.846;2024-01-06T03:20:02;18.02;;;11.52;;
84915;SDS011;75178;53.054;5.846;2024-01-06T03:22:47;18.50;;;12.05;;
84915;SDS011;75178;53.054;5.846;2024-01-06T03:25:31;18.13;;;12.13;;
84915;SDS011;75178;53.054;5.846;2024-01-06T03:28:16;16.70;;;11.52;;
84915;SDS011;75178;53.054;5.846;2024-01-06T03:31:00;20.13;;;11.73;;
84915;SDS011;75178;53.054;5.846;2024-01-06T03:33:44;15.93;;;11.20;;
84915;SDS011;75178;53.054;5.846;2024-01-06T03:36:29;17.38;;;11.20;;
84915;SDS011;75178;53.054;5.846;2024-01-06T03:39:13;17.02;;;12.05;;
84915;SDS011;75178;53.054;5.846;2024-01-06T03:41:57;24.42;;;11.20;;
84915;SDS011;75178;53.054;5.846;2024-01-06T03:44:42;18.67;;;10.82;;
84915;SDS011;75178;53.054;5.846;2024-01-06T03:47:29;16.42;;;10.95;;
84915;SDS011;75178;53.054;5.846;2024-01-06T03:50:13;16.90;;;10.90;;
84915;SDS011;75178;53.054;5.846;2024-01-06T03:52:57;20.05;;;11.75;;
84915;SDS011;75178;53.054;5.846;2024-01-06T03:55:41;18.13;;;10.18;;
84915;SDS011;75178;53.054;5.846;2024-01-06T03:58:26;21.65;;;10.43;;
84915;SDS011;75178;53.054;5.846;2024-01-06T04:01:11;20.77;;;9.98;;
84915;SDS011;75178;53.054;5.846;2024-01-06T04:03:55;18.95;;;10.75;;
84915;SDS011;75178;53.054;5.846;2024-01-06T04:06:39;22.10;;;10.57;;
84915;SDS011;75178;53.054;5.846;2024-01-06T04:09:23;18.95;;;9.25;;
84915;SDS011;75178;53.054;5.846;2024-01-06T04:12:07;14.45;;;9.30;;
84915;SDS011;75178;53.054;5.846;2024-01-06T04:14:52;16.85;;;8.75;;
84915;SDS011;75178;53.054;5.846;2024-01-06T04:17:37;18.23;;;9.15;;
84915;SDS011;75178;53.054;5.846;2024-01-06T04:20:22;18.17;;;8.43;;
84915;SDS011;75178;53.054;5.846;2024-01-06T04:23:06;15.75;;;9.18;;
84915;SDS011;75178;53.054;5.846;2024-01-06T04:25:50;14.57;;;8.73;;
84915;SDS011;75178;53.054;5.846;2024-01-06T04:28:34;17.13;;;8.60;;
84915;SDS011;75178;53.054;5.846;2024-01-06T04:31:18;17.30;;;9.40;;
84915;SDS011;75178;53.054;5.846;2024-01-06T04:34:04;17.20;;;9.13;;
84915;SDS011;75178;53.054;5.846;2024-01-06T04:36:48;15.68;;;8.75;;
84915;SDS011;75178;53.054;5.846;2024-01-06T04:39:32;12.70;;;9.20;;
84915;SDS011;75178;53.054;5.846;2024-01-06T04:42:16;15.43;;;8.55;;
84915;SDS011;75178;53.054;5.846;2024-01-06T04:45:00;15.60;;;8.73;;
84915;SDS011;75178;53.054;5.846;2024-01-06T04:47:44;17.17;;;9.38;;
84915;SDS011;75178;53.054;5.846;2024-01-06T04:50:30;29.40;;;10.80;;
84915;SDS011;75178;53.054;5.846;2024-01-06T04:53:14;21.70;;;9.30;;
84915;SDS011;75178;53.054;5.846;2024-01-06T04:55:58;16.90;;;9.43;;
84915;SDS011;75178;53.054;5.846;2024-01-06T04:58:42;17.25;;;9.70;;
84915;SDS011;75178;53.054;5.846;2024-01-06T05:01:26;18.90;;;9.82;;
84915;SDS011;75178;53.054;5.846;2024-01-06T05:04:11;17.45;;;9.52;;
84915;SDS011;75178;53.054;5.846;2024-01-06T05:06:56;24.67;;;8.93;;
84915;SDS011;75178;53.054;5.846;2024-01-06T05:09:40;18.73;;;9.32;;
84915;SDS011;75178;53.054;5.846;2024-01-06T05:12:24;16.75;;;8.93;;
84915;SDS011;75178;53.054;5.846;2024-01-06T05:15:09;12.50;;;8.30;;
84915;SDS011;75178;53.054;5.846;2024-01-06T05:17:53;23.48;;;8.52;;
84915;SDS011;75178;53.054;5.846;2024-01-06T05:20:37;22.48;;;9.35;;
84915;SDS011;75178;53.054;5.846;2024-01-06T05:23:23;14.27;;;8.65;;
84915;SDS011;75178;53.054;5.846;2024-01-06T05:26:07;14.48;;;8.15;;
84915;SDS011;75178;53.054;5.846;2024-01-06T05:28:51;16.23;;;8.35;;
84915;SDS011;75178;53.054;5.846;2024-01-06T05:31:36;16.98;;;9.75;;
84915;SDS011;75178;53.054;5.846;2024-01-06T05:34:20;15.23;;;9.25;;
84915;SDS011;75178;53.054;5.846;2024-01-06T05:37:04;16.75;;;8.57;;
84915;SDS011;75178;53.054;5.846;2024-01-06T05:39:50;18.05;;;9.18;;
84915;SDS011;75178;53.054;5.846;2024-01-06T05:42:34;20.23;;;9.30;;
84915;SDS011;75178;53.054;5.846;2024-01-06T05:45:18;15.80;;;8.70;;
84915;SDS011;75178;53.054;5.846;2024-01-06T05:48:02;13.60;;;8.20;;
84915;SDS011;75178;53.054;5.846;2024-01-06T05:50:47;15.52;;;8.55;;
84915;SDS011;75178;53.054;5.846;2024-01-06T05:53:31;16.58;;;8.25;;
84915;SDS011;75178;53.054;5.846;2024-01-06T05:56:23;16.92;;;8.55;;
84915;SDS011;75178;53.054;5.846;2024-01-06T05:59:07;16.90;;;8.35;;
84915;SDS011;75178;53.054;5.846;2024-01-06T06:01:51;18.05;;;9.35;;
84915;SDS011;75178;53.054;5.846;2024-01-06T06:04:35;16.92;;;8.68;;
84915;SDS011;75178;53.054;5.846;2024-01-06T06:07:19;15.88;;;8.32;;
84915;SDS011;75178;53.054;5.846;2024-01-06T06:10:04;16.60;;;8.43;;
84915;SDS011;75178;53.054;5.846;2024-01-06T06:12:51;14.90;;;8.63;;
84915;SDS011;75178;53.054;5.846;2024-01-06T06:15:35;15.88;;;8.73;;
84915;SDS011;75178;53.054;5.846;2024-01-06T06:18:19;16.92;;;9.38;;
84915;SDS011;75178;53.054;5.846;2024-01-06T06:21:04;18.10;;;8.75;;
84915;SDS011;75178;53.054;5.846;2024-01-06T06:23:49;16.73;;;9.15;;
84915;SDS011;75178;53.054;5.846;2024-01-06T06:26:33;15.60;;;9.52;;
84915;SDS011;75178;53.054;5.846;2024-01-06T06:29:19;18.60;;;9.68;;
84915;SDS011;75178;53.054;5.846;2024-01-06T06:32:03;15.73;;;8.90;;
84915;SDS011;75178;53.054;5.846;2024-01-06T06:34:47;16.02;;;9.23;;
84915;SDS011;75178;53.054;5.846;2024-01-06T06:37:31;19.55;;;9.27;;
84915;SDS011;75178;53.054;5.846;2024-01-06T06:40:15;15.93;;;9.07;;
84915;SDS011;75178;53.054;5.846;2024-01-06T06:42:59;19.65;;;8.93;;
84915;SDS011;75178;53.054;5.846;2024-01-06T06:45:45;18.70;;;8.70;;
84915;SDS011;75178;53.054;5.846;2024-01-06T06:48:29;15.32;;;8.95;;
84915;SDS011;75178;53.054;5.846;2024-01-06T06:51:13;18.65;;;8.95;;
84915;SDS011;75178;53.054;5.846;2024-01-06T06:53:57;15.38;;;8.75;;
84915;SDS011;75178;53.054;5.846;2024-01-06T06:56:41;16.70;;;9.05;;
84915;SDS011;75178;53.054;5.846;2024-01-06T06:59:26;20.15;;;9.60;;
84915;SDS011;75178;53.054;5.846;2024-01-06T07:02:11;17.38;;;8.75;;
84915;SDS011;75178;53.054;5.846;2024-01-06T07:04:55;23.33;;;9.57;;
84915;SDS011;75178;53.054;5.846;2024-01-06T07:07:40;16.85;;;8.95;;
84915;SDS011;75178;53.054;5.846;2024-01-06T07:10:24;19.65;;;11.77;;
84915;SDS011;75178;53.054;5.846;2024-01-06T07:13:08;19.02;;;9.38;;
84915;SDS011;75178;53.054;5.846;2024-01-06T07:15:52;21.35;;;10.32;;
84915;SDS011;75178;53.054;5.846;2024-01-06T07:18:38;18.98;;;8.95;;
84915;SDS011;75178;53.054;5.846;2024-01-06T07:21:22;19.35;;;9.73;;
84915;SDS011;75178;53.054;5.846;2024-01-06T07:24:06;23.58;;;10.60;;
84915;SDS011;75178;53.054;5.846;2024-01-06T07:26:50;18.33;;;9.30;;
84915;SDS011;75178;53.054;5.846;2024-01-06T07:29:35;16.58;;;8.90;;
84915;SDS011;75178;53.054;5.846;2024-01-06T07:32:19;18.17;;;9.70;;
84915;SDS011;75178;53.054;5.846;2024-01-06T07:35:04;19.50;;;10.40;;
84915;SDS011;75178;53.054;5.846;2024-01-06T07:37:49;21.88;;;9.52;;
84915;SDS011;75178;53.054;5.846;2024-01-06T07:40:33;16.42;;;9.70;;
84915;SDS011;75178;53.054;5.846;2024-01-06T07:43:25;14.40;;;9.40;;
84915;SDS011;75178;53.054;5.846;2024-01-06T07:46:13;16.25;;;9.48;;
84915;SDS011;75178;53.054;5.846;2024-01-06T07:49:01;28.13;;;10.40;;
84915;SDS011;75178;53.054;5.846;2024-01-06T07:51:46;14.65;;;10.30;;
84915;SDS011;75178;53.054;5.846;2024-01-06T07:54:30;17.90;;;9.20;;
84915;SDS011;75178;53.054;5.846;2024-01-06T07:57:15;15.50;;;8.80;;
84915;SDS011;75178;53.054;5.846;2024-01-06T07:59:59;14.52;;;8.70;;
84915;SDS011;75178;53.054;5.846;2024-01-06T08:02:43;13.07;;;8.82;;
84915;SDS011;75178;53.054;5.846;2024-01-06T08:05:27;14.98;;;9.07;;
84915;SDS011;75178;53.054;5.846;2024-01-06T08:08:12;17.13;;;8.38;;
84915;SDS011;75178;53.054;5.846;2024-01-06T08:10:57;14.30;;;8.73;;
84915;SDS011;75178;53.054;5.846;2024-01-06T08:13:41;17.98;;;9.57;;
84915;SDS011;75178;53.054;5.846;2024-01-06T08:16:25;11.50;;;8.40;;
84915;SDS011;75178;53.054;5.846;2024-01-06T08:19:09;16.92;;;9.48;;
84915;SDS011;75178;53.054;5.846;2024-01-06T08:21:53;18.85;;;9.40;;
84915;SDS011;75178;53.054;5.846;2024-01-06T08:24:39;22.65;;;10.18;;
84915;SDS011;75178;53.054;5.846;2024-01-06T08:27:23;16.55;;;9.52;;
84915;SDS011;75178;53.054;5.846;2024-01-06T08:30:08;16.52;;;9.93;;
84915;SDS011;75178;53.054;5.846;2024-01-06T08:32:52;16.50;;;9.40;;
84915;SDS011;75178;53.054;5.846;2024-01-06T08:35:36;15.13;;;8.70;;
84915;SDS011;75178;53.054;5.846;2024-01-06T08:38:20;21.38;;;9.93;;
84915;SDS011;75178;53.054;5.846;2024-01-06T08:41:06;15.57;;;9.25;;
84915;SDS011;75178;53.054;5.846;2024-01-06T08:43:50;18.15;;;8.77;;
84915;SDS011;75178;53.054;5.846;2024-01-06T08:46:35;17.60;;;9.23;;
84915;SDS011;75178;53.054;5.846;2024-01-06T08:49:19;15.05;;;9.70;;
84915;SDS011;75178;53.054;5.846;2024-01-06T08:52:03;14.27;;;9.15;;
84915;SDS011;75178;53.054;5.846;2024-01-06T08:54:48;16.88;;;10.80;;
84915;SDS011;75178;53.054;5.846;2024-01-06T08:57:33;18.20;;;10.90;;
84915;SDS011;75178;53.054;5.846;2024-01-06T09:00:18;18.45;;;10.50;;
84915;SDS011;75178;53.054;5.846;2024-01-06T09:03:02;17.30;;;9.80;;
84915;SDS011;75178;53.054;5.846;2024-01-06T09:05:47;18.75;;;10.25;;
84915;SDS011;75178;53.054;5.846;2024-01-06T09:08:31;22.60;;;10.75;;
84915;SDS011;75178;53.054;5.846;2024-01-06T09:11:15;19.52;;;11.30;;
84915;SDS011;75178;53.054;5.846;2024-01-06T09:14:01;18.42;;;10.32;;
84915;SDS011;75178;53.054;5.846;2024-01-06T09:16:45;14.45;;;9.35;;
84915;SDS011;75178;53.054;5.846;2024-01-06T09:19:29;15.35;;;9.18;;
84915;SDS011;75178;53.054;5.846;2024-01-06T09:22:13;16.70;;;9.40;;
84915;SDS011;75178;53.054;5.846;2024-01-06T09:24:57;19.58;;;10.18;;
84915;SDS011;75178;53.054;5.846;2024-01-06T09:27:42;18.67;;;9.40;;
84915;SDS011;75178;53.054;5.846;2024-01-06T09:30:27;20.38;;;10.40;;
84915;SDS011;75178;53.054;5.846;2024-01-06T09:33:11;16.55;;;9.77;;
84915;SDS011;75178;53.054;5.846;2024-01-06T09:35:55;16.45;;;10.40;;
84915;SDS011;75178;53.054;5.846;2024-01-06T09:38:40;21.45;;;11.05;;
84915;SDS011;75178;53.054;5.846;2024-01-06T09:41:24;25.27;;;11.60;;
84915;SDS011;75178;53.054;5.846;2024-01-06T09:44:08;20.50;;;12.15;;
84915;SDS011;75178;53.054;5.846;2024-01-06T09:46:54;16.90;;;10.80;;
84915;SDS011;75178;53.054;5.846;2024-01-06T09:49:41;19.75;;;11.98;;
84915;SDS011;75178;53.054;5.846;2024-01-06T09:52:32;27.40;;;11.85;;
84915;SDS011;75178;53.054;5.846;2024-01-06T09:55:16;19.42;;;11.95;;
84915;SDS011;75178;53.054;5.846;2024-01-06T09:58:01;14.85;;;9.27;;
84915;SDS011;75178;53.054;5.846;2024-01-06T10:00:46;22.88;;;10.55;;
84915;SDS011;75178;53.054;5.846;2024-01-06T10:03:33;20.35;;;11.27;;
84915;SDS011;75178;53.054;5.846;2024-01-06T10:06:18;20.67;;;10.55;;
84915;SDS011;75178;53.054;5.846;2024-01-06T10:09:02;19.38;;;10.90;;
84915;SDS011;75178;53.054;5.846;2024-01-06T10:11:46;16.05;;;10.48;;
84915;SDS011;75178;53.054;5.846;2024-01-06T10:14:31;15.30;;;10.25;;
84915;SDS011;75178;53.054;5.846;2024-01-06T10:17:15;16.27;;;10.88;;
84915;SDS011;75178;53.054;5.846;2024-01-06T10:20:01;23.50;;;11.40;;
84915;SDS011;75178;53.054;5.846;2024-01-06T10:22:46;17.48;;;10.90;;
84915;SDS011;75178;53.054;5.846;2024-01-06T10:25:30;14.13;;;10.68;;
84915;SDS011;75178;53.054;5.846;2024-01-06T10:28:14;20.60;;;10.68;;
84915;SDS011;75178;53.054;5.846;2024-01-06T10:30:58;18.35;;;10.45;;
84915;SDS011;75178;53.054;5.846;2024-01-06T10:33:42;28.63;;;10.88;;
84915;SDS011;75178;53.054;5.846;2024-01-06T10:36:28;19.65;;;10.85;;
84915;SDS011;75178;53.054;5.846;2024-01-06T10:39:12;20.73;;;11.23;;
84915;SDS011;75178;53.054;5.846;2024-01-06T10:41:57;18.95;;;10.23;;
84915;SDS011;75178;53.054;5.846;2024-01-06T10:44:42;24.23;;;11.00;;
84915;SDS011;75178;53.054;5.846;2024-01-06T10:47:28;23.77;;;10.77;;
84915;SDS011;75178;53.054;5.846;2024-01-06T10:50:14;24.90;;;12.07;;
84915;SDS011;75178;53.054;5.846;2024-01-06T10:53:01;24.13;;;11.48;;
84915;SDS011;75178;53.054;5.846;2024-01-06T10:55:46;19.95;;;10.60;;
84915;SDS011;75178;53.054;5.846;2024-01-06T10:58:33;24.58;;;11.07;;
84915;SDS011;75178;53.054;5.846;2024-01-06T11:01:21;17.60;;;9.73;;
84915;SDS011;75178;53.054;5.846;2024-01-06T11:04:05;18.70;;;10.65;;
84915;SDS011;75178;53.054;5.846;2024-01-06T11:06:49;18.80;;;10.32;;
84915;SDS011;75178;53.054;5.846;2024-01-06T11:09:35;15.80;;;9.48;;
84915;SDS011;75178;53.054;5.846;2024-01-06T11:12:23;14.32;;;9.57;;
84915;SDS011;75178;53.054;5.846;2024-01-06T11:15:07;23.35;;;11.50;;
84915;SDS011;75178;53.054;5.846;2024-01-06T11:17:52;13.88;;;8.98;;
84915;SDS011;75178;53.054;5.846;2024-01-06T11:20:37;24.33;;;11.18;;
84915;SDS011;75178;53.054;5.846;2024-01-06T11:23:21;15.65;;;9.13;;
84915;SDS011;75178;53.054;5.846;2024-01-06T11:26:07;15.82;;;10.15;;
84915;SDS011;75178;53.054;5.846;2024-01-06T11:28:52;16.23;;;8.48;;
84915;SDS011;75178;53.054;5.846;2024-01-06T11:31:38;16.83;;;9.63;;
84915;SDS011;75178;53.054;5.846;2024-01-06T11:34:22;13.63;;;9.13;;
84915;SDS011;75178;53.054;5.846;2024-01-06T11:37:06;16.77;;;9.85;;
84915;SDS011;75178;53.054;5.846;2024-01-06T11:39:51;18.05;;;9.13;;
84915;SDS011;75178;53.054;5.846;2024-01-06T11:42:38;16.75;;;9.43;;
84915;SDS011;75178;53.054;5.846;2024-01-06T11:45:25;19.90;;;9.10;;
84915;SDS011;75178;53.054;5.846;2024-01-06T11:48:10;21.75;;;9.23;;
84915;SDS011;75178;53.054;5.846;2024-01-06T11:50:54;20.25;;;9.48;;
84915;SDS011;75178;53.054;5.846;2024-01-06T11:53:39;13.85;;;9.10;;
84915;SDS011;75178;53.054;5.846;2024-01-06T11:56:24;14.05;;;9.10;;
84915;SDS011;75178;53.054;5.846;2024-01-06T11:59:09;13.82;;;8.95;;
84915;SDS011;75178;53.054;5.846;2024-01-06T12:01:55;12.50;;;9.35;;
84915;SDS011;75178;53.054;5.846;2024-01-06T12:04:39;17.45;;;7.95;;
84915;SDS011;75178;53.054;5.846;2024-01-06T12:07:24;12.65;;;8.05;;
84915;SDS011;75178;53.054;5.846;2024-01-06T12:10:08;11.95;;;7.53;;
84915;SDS011;75178;53.054;5.846;2024-01-06T12:12:57;12.45;;;8.00;;
84915;SDS011;75178;53.054;5.846;2024-01-06T12:15:43;15.60;;;8.60;;
84915;SDS011;75178;53.054;5.846;2024-01-06T12:18:28;11.95;;;8.00;;
84915;SDS011;75178;53.054;5.846;2024-01-06T12:21:13;20.40;;;8.05;;
84915;SDS011;75178;53.054;5.846;2024-01-06T12:24:12;14.20;;;8.55;;
84915;SDS011;75178;53.054;5.846;2024-01-06T12:26:58;10.68;;;6.85;;
84915;SDS011;75178;53.054;5.846;2024-01-06T12:29:43;17.92;;;7.57;;
84915;SDS011;75178;53.054;5.846;2024-01-06T12:32:28;11.77;;;7.07;;
84915;SDS011;75178;53.054;5.846;2024-01-06T12:35:13;10.93;;;7.15;;
84915;SDS011;75178;53.054;5.846;2024-01-06T12:37:57;10.13;;;7.35;;
84915;SDS011;75178;53.054;5.846;2024-01-06T12:40:42;9.20;;;7.03;;
84915;SDS011;75178;53.054;5.846;2024-01-06T12:43:26;11.52;;;6.53;;
84915;SDS011;75178;53.054;5.846;2024-01-06T12:46:10;11.23;;;7.40;;
84915;SDS011;75178;53.054;5.846;2024-01-06T12:48:56;11.57;;;6.97;;
84915;SDS011;75178;53.054;5.846;2024-01-06T12:51:40;12.48;;;6.75;;
84915;SDS011;75178;53.054;5.846;2024-01-06T12:54:24;12.18;;;7.07;;
84915;SDS011;75178;53.054;5.846;2024-01-06T12:57:09;8.60;;;6.47;;
84915;SDS011;75178;53.054;5.846;2024-01-06T12:59:53;8.48;;;6.47;;
84915;SDS011;75178;53.054;5.846;2024-01-06T13:02:37;9.25;;;6.57;;
84915;SDS011;75178;53.054;5.846;2024-01-06T13:05:22;8.25;;;6.15;;
84915;SDS011;75178;53.054;5.846;2024-01-06T13:08:07;9.95;;;6.30;;
84915;SDS011;75178;53.054;5.846;2024-01-06T13:10:51;11.82;;;7.57;;
84915;SDS011;75178;53.054;5.846;2024-01-06T13:13:35;12.38;;;6.93;;
84915;SDS011;75178;53.054;5.846;2024-01-06T13:16:19;9.90;;;6.50;;
84915;SDS011;75178;53.054;5.846;2024-01-06T13:19:03;11.00;;;6.57;;
84915;SDS011;75178;53.054;5.846;2024-01-06T13:21:49;8.43;;;6.50;;
84915;SDS011;75178;53.054;5.846;2024-01-06T13:24:33;8.90;;;6.30;;
84915;SDS011;75178;53.054;5.846;2024-01-06T13:27:17;8.30;;;6.43;;
84915;SDS011;75178;53.054;5.846;2024-01-06T13:30:01;11.32;;;7.60;;
84915;SDS011;75178;53.054;5.846;2024-01-06T13:32:47;11.48;;;6.80;;
84915;SDS011;75178;53.054;5.846;2024-01-06T13:35:31;9.18;;;7.10;;
84915;SDS011;75178;53.054;5.846;2024-01-06T13:38:16;9.52;;;7.15;;
84915;SDS011;75178;53.054;5.846;2024-01-06T13:41:00;11.80;;;7.75;;
84915;SDS011;75178;53.054;5.846;2024-01-06T13:43:45;12.85;;;7.68;;
84915;SDS011;75178;53.054;5.846;2024-01-06T13:46:29;8.98;;;6.57;;
84915;SDS011;75178;53.054;5.846;2024-01-06T13:49:13;9.95;;;7.38;;
84915;SDS011;75178;53.054;5.846;2024-01-06T13:51:57;7.82;;;6.55;;
84915;SDS011;75178;53.054;5.846;2024-01-06T13:54:43;8.00;;;6.45;;
84915;SDS011;75178;53.054;5.846;2024-01-06T13:57:27;9.75;;;6.60;;
84915;SDS011;75178;53.054;5.846;2024-01-06T14:00:11;9.50;;;6.63;;
84915;SDS011;75178;53.054;5.846;2024-01-06T14:02:56;9.00;;;6.60;;
84915;SDS011;75178;53.054;5.846;2024-01-06T14:05:41;10.20;;;6.55;;
84915;SDS011;75178;53.054;5.846;2024-01-06T14:08:25;10.55;;;7.43;;
84915;SDS011;75178;53.054;5.846;2024-01-06T14:11:10;9.73;;;6.75;;
84915;SDS011;75178;53.054;5.846;2024-01-06T14:13:54;7.55;;;6.03;;
84915;SDS011;75178;53.054;5.846;2024-01-06T14:16:39;7.72;;;5.93;;
84915;SDS011;75178;53.054;5.846;2024-01-06T14:19:24;9.02;;;6.05;;
84915;SDS011;75178;53.054;5.846;2024-01-06T14:22:08;8.05;;;6.05;;
84915;SDS011;75178;53.054;5.846;2024-01-06T14:24:52;10.27;;;6.22;;
84915;SDS011;75178;53.054;5.846;2024-01-06T14:27:38;8.90;;;5.93;;
84915;SDS011;75178;53.054;5.846;2024-01-06T14:30:22;6.97;;;5.82;;
84915;SDS011;75178;53.054;5.846;2024-01-06T14:33:06;7.55;;;6.07;;
84915;SDS011;75178;53.054;5.846;2024-01-06T14:35:50;8.00;;;6.18;;
84915;SDS011;75178;53.054;5.846;2024-01-06T14:38:34;10.18;;;6.97;;
84915;SDS011;75178;53.054;5.846;2024-01-06T14:41:19;9.10;;;6.32;;
84915;SDS011;75178;53.054;5.846;2024-01-06T14:44:04;9.77;;;6.70;;
84915;SDS011;75178;53.054;5.846;2024-01-06T14:46:48;8.52;;;6.22;;
84915;SDS011;75178;53.054;5.846;2024-01-06T14:49:33;8.27;;;7.13;;
84915;SDS011;75178;53.054;5.846;2024-01-06T14:52:17;8.43;;;6.55;;
84915;SDS011;75178;53.054;5.846;2024-01-06T14:55:01;9.07;;;6.32;;
84915;SDS011;75178;53.054;5.846;2024-01-06T14:57:45;8.75;;;6.30;;
84915;SDS011;75178;53.054;5.846;2024-01-06T15:00:30;8.50;;;6.35;;
84915;SDS011;75178;53.054;5.846;2024-01-06T15:03:14;10.93;;;6.70;;
84915;SDS011;75178;53.054;5.846;2024-01-06T15:05:58;8.48;;;5.82;;
84915;SDS011;75178;53.054;5.846;2024-01-06T15:08:43;9.68;;;6.18;;
84915;SDS011;75178;53.054;5.846;2024-01-06T15:11:27;10.95;;;6.75;;
84915;SDS011;75178;53.054;5.846;2024-01-06T15:14:11;9.20;;;6.95;;
84915;SDS011;75178;53.054;5.846;2024-01-06T15:16:56;9.45;;;7.63;;
84915;SDS011;75178;53.054;5.846;2024-01-06T15:19:40;8.80;;;6.90;;
84915;SDS011;75178;53.054;5.846;2024-01-06T15:22:24;10.10;;;7.57;;
84915;SDS011;75178;53.054;5.846;2024-01-06T15:25:09;10.48;;;7.75;;
84915;SDS011;75178;53.054;5.846;2024-01-06T15:27:53;11.98;;;7.88;;
84915;SDS011;75178;53.054;5.846;2024-01-06T15:30:37;8.82;;;6.85;;
84915;SDS011;75178;53.054;5.846;2024-01-06T15:33:22;9.00;;;6.97;;
84915;SDS011;75178;53.054;5.846;2024-01-06T15:36:07;11.38;;;7.88;;
84915;SDS011;75178;53.054;5.846;2024-01-06T15:38:51;9.55;;;6.78;;
84915;SDS011;75178;53.054;5.846;2024-01-06T15:41:35;11.68;;;7.53;;
84915;SDS011;75178;53.054;5.846;2024-01-06T15:44:19;12.90;;;7.78;;
84915;SDS011;75178;53.054;5.846;2024-01-06T15:47:04;9.38;;;6.97;;
84915;SDS011;75178;53.054;5.846;2024-01-06T15:49:49;11.98;;;7.28;;
84915;SDS011;75178;53.054;5.846;2024-01-06T15:52:34;9.30;;;6.70;;
84915;SDS011;75178;53.054;5.846;2024-01-06T15:55:18;10.32;;;7.35;;
84915;SDS011;75178;53.054;5.846;2024-01-06T15:58:03;9.63;;;6.80;;
84915;SDS011;75178;53.054;5.846;2024-01-06T16:00:47;8.25;;;6.65;;
84915;SDS011;75178;53.054;5.846;2024-01-06T16:03:31;9.93;;;6.82;;
84915;SDS011;75178;53.054;5.846;2024-01-06T16:06:17;10.77;;;6.90;;
84915;SDS011;75178;53.054;5.846;2024-01-06T16:09:01;10.00;;;7.00;;
84915;SDS011;75178;53.054;5.846;2024-01-06T16:11:46;12.18;;;7.72;;
84915;SDS011;75178;53.054;5.846;2024-01-06T16:14:30;11.63;;;7.85;;